Time;durP1;ratioP1;P1;durP2;ratioP2;P2;SDS_P1;SDS_P2;PMS_P1;PMS_P2;Temp;Humidity;BMP_temperature;BMP_pressure;BME280_temperature;BME280_humidity;BME280_pressure;Samples;Min_cycle;Max_cycle;Signal;HPM_P1;HPM_P2
2022/02/24 00:01:09;;;;;;;;;19.00;17.00;;;;;;;;5043149;28;51040;-54
2022/02/24 00:03:58;;;;;;;;;18.50;14.50;;;;;;;;5055862;28;51045;-49
2022/02/24 00:06:44;;;;;;;;;14.00;13.00;;;;;;;;5050280;28;51021;-52
2022/02/24 00:09:40;;;;;;;;;18.00;17.50;;;;;;;;5046611;28;51040;-51
2022/02/24 00:12:25;;;;;;;;;19.25;16.25;;;;;;;;5043480;28;51147;-50
2022/02/24 00:15:10;;;;;;;;;16.50;15.25;;;;;;;;5043517;28;51148;-50
2022/02/24 00:18:10;;;;;;;;;20.50;17.75;;;;;;;;5046503;28;51114;-50
2022/02/24 00:20:59;;;;;;;;;17.50;14.50;;;;;;;;5043846;28;51569;-50
2022/02/24 00:23:43;;;;;;;;;20.75;16.00;;;;;;;;5048626;28;51450;-49
2022/02/24 00:26:29;;;;;;;;;21.00;17.50;;;;;;;;5047075;28;51219;-51
2022/02/24 00:29:19;;;;;;;;;16.75;15.00;;;;;;;;5043705;28;51322;-51
2022/02/24 00:32:03;;;;;;;;;23.00;15.75;;;;;;;;5043397;28;51143;-49
2022/02/24 00:34:49;;;;;;;;;27.75;18.00;;;;;;;;5047014;28;51587;-51
2022/02/24 00:37:44;;;;;;;;;21.50;16.50;;;;;;;;5054714;28;51075;-52
2022/02/24 00:40:29;;;;;;;;;20.25;17.00;;;;;;;;5044178;28;51235;-52
2022/02/24 00:43:14;;;;;;;;;16.75;14.25;;;;;;;;5058261;28;51114;-49
2022/02/24 00:46:09;;;;;;;;;19.75;16.25;;;;;;;;5044203;28;51086;-51
2022/02/24 00:49:05;;;;;;;;;19.25;15.00;;;;;;;;5046824;28;51539;-52
2022/02/24 00:51:51;;;;;;;;;18.00;16.00;;;;;;;;5052022;28;51092;-52
2022/02/24 00:54:35;;;;;;;;;23.50;18.75;;;;;;;;5056538;28;51499;-51
2022/02/24 00:57:21;;;;;;;;;21.50;17.25;;;;;;;;5057247;28;51111;-50
2022/02/24 01:00:05;;;;;;;;;24.50;18.00;;;;;;;;5041792;28;51170;-52
2022/02/24 01:02:55;;;;;;;;;18.50;16.00;;;;;;;;5041595;28;51445;-48
2022/02/24 01:05:40;;;;;;;;;26.25;19.25;;;;;;;;5042102;28;51114;-51
2022/02/24 01:08:26;;;;;;;;;25.75;18.50;;;;;;;;5059910;28;51281;-49
2022/02/24 01:11:24;;;;;;;;;17.50;16.50;;;;;;;;5044290;28;51328;-50
2022/02/24 01:14:08;;;;;;;;;19.25;15.00;;;;;;;;5049439;28;51215;-51
2022/02/24 01:16:54;;;;;;;;;21.50;16.50;;;;;;;;5043722;28;51149;-53
2022/02/24 01:19:41;;;;;;;;;23.75;19.50;;;;;;;;5041530;28;51383;-50
2022/02/24 01:22:45;;;;;;;;;24.50;18.75;;;;;;;;5040806;28;51078;-52
2022/02/24 01:25:35;;;;;;;;;21.75;18.25;;;;;;;;5059717;28;51013;-50
2022/02/24 01:28:21;;;;;;;;;20.25;16.00;;;;;;;;5061086;28;51108;-51
2022/02/24 01:31:05;;;;;;;;;24.25;18.75;;;;;;;;5041430;28;51409;-53
2022/02/24 01:33:50;;;;;;;;;20.00;16.00;;;;;;;;5040851;28;51080;-52
2022/02/24 01:36:35;;;;;;;;;20.50;17.75;;;;;;;;5040882;28;51040;-52
2022/02/24 01:39:20;;;;;;;;;23.00;18.00;;;;;;;;5041174;28;51495;-49
2022/02/24 01:42:05;;;;;;;;;21.00;15.75;;;;;;;;5056159;28;51426;-50
2022/02/24 01:44:50;;;;;;;;;20.50;17.50;;;;;;;;5043554;28;51190;-51
2022/02/24 01:47:35;;;;;;;;;23.50;17.25;;;;;;;;5044711;28;51542;-51
2022/02/24 01:50:20;;;;;;;;;21.25;19.00;;;;;;;;5048225;28;51392;-49
2022/02/24 01:53:08;;;;;;;;;21.00;16.50;;;;;;;;5040453;28;51021;-51
2022/02/24 01:55:52;;;;;;;;;17.75;13.75;;;;;;;;5040962;28;51036;-51
2022/02/24 01:58:37;;;;;;;;;22.50;17.75;;;;;;;;5040361;28;51261;-50
2022/02/24 02:01:24;;;;;;;;;20.25;17.50;;;;;;;;5044108;28;51069;-50
2022/02/24 02:04:25;;;;;;;;;15.75;13.75;;;;;;;;5044111;28;51151;-52
2022/02/24 02:07:12;;;;;;;;;23.75;18.25;;;;;;;;5042703;28;51476;-51
2022/02/24 02:09:57;;;;;;;;;19.75;17.75;;;;;;;;5042634;28;51469;-52
2022/02/24 02:12:47;;;;;;;;;22.00;16.50;;;;;;;;5040630;28;51186;-51
2022/02/24 02:15:31;;;;;;;;;18.50;14.25;;;;;;;;5040407;28;51455;-51
2022/02/24 02:18:15;;;;;;;;;19.00;18.50;;;;;;;;5042237;28;51072;-52
2022/02/24 02:21:01;;;;;;;;;22.00;17.50;;;;;;;;5043716;28;51097;-49
2022/02/24 02:23:54;;;;;;;;;21.25;17.25;;;;;;;;5040017;28;51132;-51
2022/02/24 02:26:49;;;;;;;;;20.25;17.25;;;;;;;;5040570;28;51072;-50
2022/02/24 02:29:34;;;;;;;;;23.75;18.00;;;;;;;;5040981;28;51129;-50
2022/02/24 02:32:19;;;;;;;;;22.25;17.50;;;;;;;;5041362;28;51067;-51
2022/02/24 02:35:04;;;;;;;;;24.50;19.00;;;;;;;;5043412;28;51531;-52
2022/02/24 02:37:49;;;;;;;;;21.00;16.50;;;;;;;;5039809;28;51106;-53
2022/02/24 02:40:37;;;;;;;;;21.00;17.00;;;;;;;;5043481;28;51578;-50
2022/02/24 02:43:35;;;;;;;;;20.75;17.00;;;;;;;;5043657;28;50992;-50
2022/02/24 02:46:19;;;;;;;;;25.25;18.00;;;;;;;;5040102;28;51072;-51
2022/02/24 02:49:08;;;;;;;;;21.50;18.25;;;;;;;;5045764;28;51328;-50
2022/02/24 02:52:04;;;;;;;;;22.50;16.25;;;;;;;;5047463;28;51137;-51
2022/02/24 02:54:52;;;;;;;;;17.50;16.25;;;;;;;;5023768;28;51343;-50
2022/02/24 02:57:39;;;;;;;;;27.25;18.75;;;;;;;;5040391;28;51135;-48
2022/02/24 03:00:29;;;;;;;;;20.50;17.50;;;;;;;;5044055;28;53215;-53
2022/02/24 03:03:34;;;;;;;;;22.75;17.25;;;;;;;;5039217;28;51082;-52
2022/02/24 03:06:20;;;;;;;;;22.00;17.75;;;;;;;;5044393;28;51267;-51
2022/02/24 03:09:12;;;;;;;;;19.75;17.25;;;;;;;;5036776;28;51347;-51
2022/02/24 03:11:57;;;;;;;;;22.25;17.75;;;;;;;;5038975;28;51097;-52
2022/02/24 03:14:49;;;;;;;;;19.00;16.25;;;;;;;;5038940;28;51084;-51
2022/02/24 03:18:22;;;;;;;;;18.50;17.25;;;;;;;;5039061;28;51068;-51
2022/02/24 03:21:07;;;;;;;;;24.00;19.50;;;;;;;;5046676;28;51144;-52
2022/02/24 03:23:53;;;;;;;;;21.00;17.00;;;;;;;;5039381;28;51036;-49
2022/02/24 03:26:47;;;;;;;;;21.75;19.00;;;;;;;;5038743;28;51459;-53
2022/02/24 03:29:33;;;;;;;;;25.75;18.75;;;;;;;;5039403;28;51740;-51
2022/02/24 03:32:24;;;;;;;;;16.25;15.00;;;;;;;;5040180;28;51196;-51
2022/02/24 03:35:20;;;;;;;;;25.25;18.00;;;;;;;;5038947;28;51084;-52
2022/02/24 03:38:08;;;;;;;;;23.00;17.00;;;;;;;;5039289;28;51070;-48
2022/02/24 03:41:13;;;;;;;;;21.50;17.00;;;;;;;;5040687;28;51516;-53
2022/02/24 03:43:57;;;;;;;;;19.25;15.75;;;;;;;;5058550;28;51137;-50
2022/02/24 03:46:48;;;;;;;;;18.50;15.50;;;;;;;;5043084;28;51217;-49
2022/02/24 03:49:33;;;;;;;;;18.00;14.75;;;;;;;;5042293;28;51143;-51
2022/02/24 03:52:19;;;;;;;;;17.50;16.50;;;;;;;;5038802;28;51475;-51
2022/02/24 03:55:04;;;;;;;;;23.25;17.50;;;;;;;;5038621;28;50982;-49
2022/02/24 03:57:48;;;;;;;;;17.25;15.75;;;;;;;;5038884;28;51504;-49
2022/02/24 04:00:33;;;;;;;;;24.00;16.00;;;;;;;;5038575;28;51022;-51
2022/02/24 04:03:29;;;;;;;;;17.75;15.50;;;;;;;;5039806;28;51074;-53
2022/02/24 04:06:16;;;;;;;;;20.50;17.00;;;;;;;;5041744;28;51579;-51
2022/02/24 04:09:01;;;;;;;;;19.00;15.75;;;;;;;;5056490;28;51114;-51
2022/02/24 04:11:46;;;;;;;;;25.25;18.25;;;;;;;;5041256;28;51173;-52
2022/02/24 04:14:32;;;;;;;;;21.00;16.50;;;;;;;;5038764;28;51138;-51
2022/02/24 04:17:27;;;;;;;;;20.50;17.25;;;;;;;;5045006;28;51359;-52
2022/02/24 04:20:32;;;;;;;;;25.00;18.75;;;;;;;;5039177;28;51006;-50
2022/02/24 04:23:18;;;;;;;;;25.50;15.75;;;;;;;;5039687;28;51489;-50
2022/02/24 04:26:05;;;;;;;;;17.25;15.25;;;;;;;;5038607;28;51061;-51
2022/02/24 04:28:58;;;;;;;;;24.50;17.00;;;;;;;;5040583;28;51057;-51
2022/02/24 04:31:44;;;;;;;;;24.75;20.25;;;;;;;;5042336;28;51434;-49
2022/02/24 04:34:29;;;;;;;;;19.00;18.25;;;;;;;;5054781;28;51084;-51
2022/02/24 04:37:28;;;;;;;;;26.00;20.00;;;;;;;;5047826;28;51236;-51
2022/02/24 04:40:15;;;;;;;;;22.00;17.00;;;;;;;;5054525;28;51222;-53
2022/02/24 04:43:09;;;;;;;;;21.00;18.75;;;;;;;;5051607;28;51423;-50
2022/02/24 04:45:55;;;;;;;;;19.50;16.75;;;;;;;;5058721;28;51114;-52
2022/02/24 04:48:48;;;;;;;;;22.75;17.25;;;;;;;;5055631;28;51456;-49
2022/02/24 04:51:33;;;;;;;;;29.25;19.00;;;;;;;;5056999;28;51313;-52
2022/02/24 04:54:23;;;;;;;;;23.75;21.00;;;;;;;;5059382;28;51109;-52
2022/02/24 04:57:08;;;;;;;;;29.50;22.75;;;;;;;;5050947;28;51112;-52
2022/02/24 04:59:54;;;;;;;;;21.00;18.75;;;;;;;;5041853;28;51539;-51
2022/02/24 05:02:40;;;;;;;;;24.00;20.75;;;;;;;;5041142;28;51143;-49
2022/02/24 05:05:25;;;;;;;;;20.50;18.00;;;;;;;;5039492;28;51273;-49
2022/02/24 05:08:10;;;;;;;;;24.00;19.00;;;;;;;;5048459;28;51531;-49
2022/02/24 05:10:55;;;;;;;;;19.00;16.00;;;;;;;;5042199;28;51205;-51
2022/02/24 05:13:42;;;;;;;;;23.25;17.75;;;;;;;;5041132;28;51248;-51
2022/02/24 05:16:53;;;;;;;;;20.00;13.75;;;;;;;;5040287;28;51159;-49
2022/02/24 05:19:37;;;;;;;;;3.50;0.00;;;;;;;;5042388;28;51159;-52
2022/02/24 05:22:24;;;;;;;;;23.50;17.25;;;;;;;;5043095;28;51003;-51
2022/02/24 05:25:18;;;;;;;;;25.25;19.25;;;;;;;;5041036;28;51434;-50
2022/02/24 05:28:16;;;;;;;;;25.00;17.25;;;;;;;;5040675;28;51151;-52
2022/02/24 05:31:01;;;;;;;;;29.00;18.25;;;;;;;;5045211;28;51135;-51
2022/02/24 05:33:48;;;;;;;;;25.75;18.25;;;;;;;;5041348;28;51406;-49
2022/02/24 05:36:34;;;;;;;;;18.50;18.25;;;;;;;;5042058;28;51135;-52
2022/02/24 05:39:20;;;;;;;;;24.75;18.25;;;;;;;;5044791;28;51526;-50
2022/02/24 05:42:06;;;;;;;;;23.50;16.50;;;;;;;;5045775;28;51179;-48
2022/02/24 05:44:51;;;;;;;;;27.25;20.00;;;;;;;;5042126;28;51155;-48
2022/02/24 05:47:38;;;;;;;;;26.75;22.00;;;;;;;;5044225;28;51109;-52
2022/02/24 05:50:25;;;;;;;;;31.25;23.50;;;;;;;;5044196;28;51516;-50
2022/02/24 05:53:16;;;;;;;;;28.00;21.50;;;;;;;;5045678;28;51146;-54
2022/02/24 05:56:01;;;;;;;;;34.50;29.25;;;;;;;;5040326;28;51087;-51
2022/02/24 05:58:59;;;;;;;;;55.00;41.75;;;;;;;;5044465;28;51017;-50
2022/02/24 06:01:45;;;;;;;;;50.75;40.25;;;;;;;;5044311;28;51055;-53
2022/02/24 06:04:29;;;;;;;;;45.00;32.00;;;;;;;;5051552;28;51633;-50
2022/02/24 06:07:25;;;;;;;;;39.00;29.50;;;;;;;;5059876;28;51163;-51
2022/02/24 06:10:12;;;;;;;;;29.00;22.50;;;;;;;;5040590;28;51064;-53
2022/02/24 06:13:06;;;;;;;;;37.50;30.25;;;;;;;;5039353;28;51327;-50
2022/02/24 06:15:50;;;;;;;;;34.25;28.75;;;;;;;;5040032;28;51519;-51
2022/02/24 06:18:38;;;;;;;;;37.50;31.75;;;;;;;;5039597;28;51155;-51
2022/02/24 06:21:33;;;;;;;;;38.00;30.50;;;;;;;;5039959;28;51049;-51
2022/02/24 06:24:19;;;;;;;;;38.75;31.25;;;;;;;;5046129;28;51064;-52
2022/02/24 06:27:04;;;;;;;;;40.50;33.25;;;;;;;;5035268;28;51138;-51
2022/02/24 06:29:48;;;;;;;;;41.50;33.25;;;;;;;;5040059;28;51473;-53
2022/02/24 06:32:37;;;;;;;;;40.50;34.25;;;;;;;;5039759;28;51173;-51
2022/02/24 06:35:33;;;;;;;;;40.00;32.75;;;;;;;;5046368;28;51113;-50
2022/02/24 06:38:17;;;;;;;;;43.25;32.75;;;;;;;;5042310;28;52291;-51
2022/02/24 06:41:02;;;;;;;;;47.25;34.50;;;;;;;;5053045;28;51585;-51
2022/02/24 06:44:09;;;;;;;;;42.75;33.25;;;;;;;;5047588;28;51420;-53
2022/02/24 06:46:55;;;;;;;;;49.00;39.00;;;;;;;;5040096;28;51111;-48
2022/02/24 06:49:41;;;;;;;;;45.50;35.75;;;;;;;;5053572;28;51623;-54
2022/02/24 06:52:26;;;;;;;;;66.25;50.50;;;;;;;;5058863;28;51111;-51
2022/02/24 06:55:22;;;;;;;;;62.25;49.75;;;;;;;;5055827;28;51537;-51
2022/02/24 06:58:11;;;;;;;;;54.25;43.25;;;;;;;;5057717;28;51355;-50
2022/02/24 07:00:58;;;;;;;;;51.75;41.00;;;;;;;;5059559;28;51138;-51
2022/02/24 07:03:42;;;;;;;;;56.75;44.25;;;;;;;;5059161;28;51448;-49
2022/02/24 07:06:26;;;;;;;;;50.75;42.25;;;;;;;;5043619;28;51102;-51
2022/02/24 07:09:14;;;;;;;;;53.75;41.00;;;;;;;;5038758;28;51053;-50
2022/02/24 07:12:00;;;;;;;;;52.25;39.75;;;;;;;;5039810;28;51116;-53
2022/02/24 07:14:44;;;;;;;;;51.25;39.50;;;;;;;;5039148;28;51354;-51
2022/02/24 07:17:32;;;;;;;;;53.00;41.75;;;;;;;;5043335;28;51213;-54
2022/02/24 07:20:38;;;;;;;;;55.00;42.00;;;;;;;;5039232;28;51065;-52
2022/02/24 07:23:28;;;;;;;;;52.50;40.75;;;;;;;;5038676;28;51195;-52
2022/02/24 07:26:17;;;;;;;;;49.75;40.50;;;;;;;;5039216;28;51002;-50
2022/02/24 07:29:04;;;;;;;;;55.25;43.00;;;;;;;;5038851;28;51096;-52
2022/02/24 07:31:58;;;;;;;;;52.25;41.00;;;;;;;;5039140;28;51080;-53
2022/02/24 07:34:43;;;;;;;;;45.25;36.75;;;;;;;;5039158;28;51199;-50
2022/02/24 07:37:27;;;;;;;;;50.75;38.50;;;;;;;;5053311;28;51108;-54
2022/02/24 07:40:16;;;;;;;;;47.75;36.50;;;;;;;;5058878;28;51324;-51
2022/02/24 07:43:04;;;;;;;;;49.75;37.75;;;;;;;;5044455;28;51602;-51
2022/02/24 07:45:55;;;;;;;;;52.75;40.25;;;;;;;;5038662;28;51188;-51
2022/02/24 07:48:43;;;;;;;;;43.75;34.50;;;;;;;;5036695;28;51201;-50
2022/02/24 07:51:48;;;;;;;;;43.75;34.75;;;;;;;;5038862;28;51096;-49
2022/02/24 07:54:34;;;;;;;;;42.75;35.00;;;;;;;;5038217;28;51439;-48
2022/02/24 07:57:20;;;;;;;;;46.25;35.00;;;;;;;;5038287;28;51633;-52
2022/02/24 08:00:04;;;;;;;;;43.75;32.75;;;;;;;;5037224;28;51128;-52
2022/02/24 08:02:55;;;;;;;;;41.25;33.50;;;;;;;;5038538;28;51112;-50
2022/02/24 08:05:39;;;;;;;;;50.00;38.00;;;;;;;;5054618;28;51448;-46
2022/02/24 08:08:24;;;;;;;;;43.50;34.00;;;;;;;;5062059;28;51173;-47
2022/02/24 08:11:19;;;;;;;;;42.75;34.50;;;;;;;;5062517;28;51071;-54
2022/02/24 08:14:03;;;;;;;;;39.75;33.25;;;;;;;;5045093;28;51394;-51
2022/02/24 08:16:48;;;;;;;;;45.50;34.00;;;;;;;;5042769;28;51202;-48
2022/02/24 08:19:34;;;;;;;;;42.50;33.50;;;;;;;;5050893;28;51130;-45
2022/02/24 08:22:21;;;;;;;;;35.25;30.25;;;;;;;;5047471;28;51553;-52
2022/02/24 08:25:11;;;;;;;;;36.50;28.00;;;;;;;;5056417;28;51027;-50
2022/02/24 08:27:56;;;;;;;;;24.75;24.50;;;;;;;;5042452;28;51448;-49
2022/02/24 08:30:43;;;;;;;;;28.25;21.25;;;;;;;;5042192;28;51547;-50
2022/02/24 08:33:37;;;;;;;;;20.75;18.75;;;;;;;;5042148;28;51050;-50
2022/02/24 08:36:22;;;;;;;;;21.75;18.25;;;;;;;;5056754;28;51360;-51
2022/02/24 08:39:06;;;;;;;;;21.75;17.00;;;;;;;;5046921;28;51129;-51
2022/02/24 08:41:53;;;;;;;;;23.00;17.75;;;;;;;;5042261;28;51175;-49
2022/02/24 08:44:43;;;;;;;;;20.50;17.25;;;;;;;;5055084;28;51312;-45
2022/02/24 08:47:40;;;;;;;;;17.75;17.25;;;;;;;;5048504;28;51441;-45
2022/02/24 08:50:34;;;;;;;;;14.25;14.25;;;;;;;;5047099;28;51012;-52
2022/02/24 08:53:24;;;;;;;;;22.75;18.00;;;;;;;;5042794;28;51111;-44
2022/02/24 08:56:19;;;;;;;;;22.25;19.00;;;;;;;;5058849;28;51095;-48
2022/02/24 08:59:04;;;;;;;;;18.75;16.00;;;;;;;;5043577;28;51043;-50
2022/02/24 09:01:52;;;;;;;;;18.00;16.50;;;;;;;;5041932;28;51080;-44
2022/02/24 09:04:36;;;;;;;;;19.75;19.75;;;;;;;;5045147;28;51035;-46
2022/02/24 09:07:22;;;;;;;;;21.25;17.75;;;;;;;;5041343;28;51107;-50
2022/02/24 09:10:22;;;;;;;;;18.50;15.00;;;;;;;;5043096;28;51175;-51
2022/02/24 09:13:08;;;;;;;;;20.75;18.00;;;;;;;;5053809;28;51928;-48
2022/02/24 09:16:02;;;;;;;;;23.25;17.50;;;;;;;;5040557;28;51392;-47
2022/02/24 09:18:49;;;;;;;;;18.75;15.50;;;;;;;;5041779;28;51117;-46
2022/02/24 09:21:34;;;;;;;;;20.00;19.50;;;;;;;;5042956;28;51415;-47
2022/02/24 09:24:22;;;;;;;;;19.75;18.25;;;;;;;;5051071;28;51169;-47
2022/02/24 09:27:07;;;;;;;;;18.75;16.25;;;;;;;;5053939;28;51111;-54
2022/02/24 09:29:51;;;;;;;;;21.25;18.50;;;;;;;;5053400;28;51139;-53
2022/02/24 09:32:42;;;;;;;;;21.25;18.50;;;;;;;;5054570;28;51036;-51
2022/02/24 09:35:28;;;;;;;;;20.25;16.00;;;;;;;;5052160;28;51173;-50
2022/02/24 09:38:16;;;;;;;;;18.50;16.25;;;;;;;;5049959;28;51041;-52
2022/02/24 09:41:03;;;;;;;;;25.50;19.50;;;;;;;;5054398;28;51290;-47
2022/02/24 09:43:49;;;;;;;;;20.25;19.25;;;;;;;;5056079;28;51123;-50
2022/02/24 09:46:35;;;;;;;;;22.75;21.00;;;;;;;;5050734;28;51090;-51
2022/02/24 09:49:23;;;;;;;;;24.50;17.00;;;;;;;;5041368;28;51250;-51
2022/02/24 09:52:08;;;;;;;;;27.25;19.00;;;;;;;;5057773;28;51030;-53
2022/02/24 09:54:56;;;;;;;;;19.75;18.50;;;;;;;;5040248;28;51144;-50
2022/02/24 09:57:43;;;;;;;;;26.00;20.00;;;;;;;;5040573;28;51040;-50
2022/02/24 10:00:34;;;;;;;;;23.50;21.00;;;;;;;;5044538;28;50993;-50
2022/02/24 10:03:37;;;;;;;;;20.25;17.50;;;;;;;;5040270;28;51407;-49
2022/02/24 10:06:31;;;;;;;;;25.00;21.25;;;;;;;;5029156;28;51452;-50
2022/02/24 10:09:29;;;;;;;;;22.75;19.00;;;;;;;;5047491;28;51326;-54
2022/02/24 10:12:17;;;;;;;;;24.25;15.00;;;;;;;;5041722;28;51566;-50
2022/02/24 10:15:11;;;;;;;;;23.00;15.50;;;;;;;;5040114;28;51092;-53
2022/02/24 10:18:16;;;;;;;;;18.25;17.50;;;;;;;;5039308;28;51360;-50
2022/02/24 10:21:20;;;;;;;;;18.25;14.50;;;;;;;;5038586;28;51201;-54
2022/02/24 10:24:20;;;;;;;;;18.00;16.25;;;;;;;;5040315;28;51014;-52
2022/02/24 10:27:44;;;;;;;;;21.25;14.50;;;;;;;;5040919;28;51247;-49
2022/02/24 10:30:29;;;;;;;;;18.25;15.00;;;;;;;;4968464;28;51104;-46
2022/02/24 10:33:36;;;;;;;;;17.25;14.50;;;;;;;;4959232;28;51061;-54
2022/02/24 10:36:23;;;;;;;;;14.00;12.50;;;;;;;;4977129;28;51576;-49
2022/02/24 10:39:21;;;;;;;;;15.75;12.25;;;;;;;;5037804;28;51153;-46
2022/02/24 10:42:07;;;;;;;;;16.75;12.00;;;;;;;;5025681;28;51184;-48
2022/02/24 10:45:06;;;;;;;;;19.00;15.75;;;;;;;;5040491;28;51468;-45
2022/02/24 10:47:58;;;;;;;;;16.25;13.25;;;;;;;;5041639;28;51116;-48
2022/02/24 10:50:56;;;;;;;;;11.50;10.50;;;;;;;;5054991;28;51538;-52
2022/02/24 10:53:44;;;;;;;;;15.75;12.75;;;;;;;;5053131;28;51143;-49
2022/02/24 10:56:30;;;;;;;;;17.00;14.75;;;;;;;;5059834;28;51374;-52
2022/02/24 10:59:31;;;;;;;;;14.25;14.25;;;;;;;;5059283;28;51194;-50
2022/02/24 11:02:37;;;;;;;;;14.00;12.25;;;;;;;;5046995;28;51159;-48
2022/02/24 11:05:30;;;;;;;;;14.00;11.50;;;;;;;;5039196;28;51061;-49
2022/02/24 11:08:15;;;;;;;;;18.00;13.75;;;;;;;;5055761;28;50997;-47
2022/02/24 11:11:13;;;;;;;;;21.50;13.25;;;;;;;;5057102;28;51381;-47
2022/02/24 11:14:01;;;;;;;;;12.00;12.00;;;;;;;;5052353;28;51043;-47
2022/02/24 11:16:47;;;;;;;;;17.75;14.75;;;;;;;;5039057;28;51644;-49
2022/02/24 11:19:34;;;;;;;;;16.25;13.00;;;;;;;;5043503;28;51198;-49
2022/02/24 11:22:25;;;;;;;;;16.50;12.00;;;;;;;;5042104;28;51729;-48
2022/02/24 11:25:12;;;;;;;;;16.50;14.00;;;;;;;;5045221;28;51108;-49
2022/02/24 11:27:58;;;;;;;;;17.00;14.25;;;;;;;;5049411;28;51158;-48
2022/02/24 11:30:46;;;;;;;;;19.25;16.75;;;;;;;;5049647;28;51601;-47
2022/02/24 11:33:33;;;;;;;;;20.25;18.50;;;;;;;;5042550;28;51213;-48
2022/02/24 11:36:24;;;;;;;;;43.75;36.50;;;;;;;;5057761;28;51139;-46
2022/02/24 11:39:17;;;;;;;;;25.00;21.25;;;;;;;;5056672;28;51116;-49
2022/02/24 11:42:13;;;;;;;;;23.00;21.25;;;;;;;;5051179;28;51173;-51
2022/02/24 11:44:59;;;;;;;;;18.25;14.00;;;;;;;;5039715;28;51191;-47
2022/02/24 11:48:02;;;;;;;;;15.00;13.25;;;;;;;;5038557;28;51878;-50
2022/02/24 11:51:07;;;;;;;;;19.25;17.00;;;;;;;;5038263;28;51189;-50
2022/02/24 11:54:05;;;;;;;;;18.00;14.50;;;;;;;;5041713;28;51301;-47
2022/02/24 11:56:49;;;;;;;;;15.25;13.25;;;;;;;;5045225;28;51126;-50
2022/02/24 11:59:50;;;;;;;;;17.00;14.75;;;;;;;;5056741;28;51369;-48
2022/02/24 12:02:49;;;;;;;;;14.50;13.00;;;;;;;;5046493;28;51435;-50
2022/02/24 12:05:36;;;;;;;;;21.00;14.50;;;;;;;;5042100;28;51034;-46
2022/02/24 12:08:20;;;;;;;;;19.50;16.50;;;;;;;;5048427;28;51537;-52
2022/02/24 12:11:25;;;;;;;;;17.25;15.75;;;;;;;;5037448;28;51095;-51
2022/02/24 12:14:23;;;;;;;;;23.25;14.00;;;;;;;;5041589;28;51468;-51
2022/02/24 12:17:09;;;;;;;;;13.00;12.50;;;;;;;;5040386;28;51087;-46
2022/02/24 12:19:57;;;;;;;;;21.75;14.25;;;;;;;;5039421;28;51082;-47
2022/02/24 12:22:47;;;;;;;;;19.75;13.00;;;;;;;;5042247;28;51076;-49
2022/02/24 12:25:32;;;;;;;;;13.25;12.75;;;;;;;;5037744;28;51172;-46
2022/02/24 12:28:17;;;;;;;;;16.00;15.50;;;;;;;;5037934;28;51148;-51
2022/02/24 12:31:03;;;;;;;;;23.75;17.75;;;;;;;;5038821;28;51255;-51
2022/02/24 12:33:54;;;;;;;;;17.75;15.50;;;;;;;;5037964;28;51724;-49
2022/02/24 12:36:41;;;;;;;;;19.00;13.50;;;;;;;;5038054;28;51251;-51
2022/02/24 12:39:30;;;;;;;;;17.00;13.00;;;;;;;;5042186;28;51432;-52
2022/02/24 12:42:31;;;;;;;;;23.25;15.00;;;;;;;;5038244;28;51328;-51
2022/02/24 12:45:20;;;;;;;;;22.75;15.00;;;;;;;;5037694;28;51441;-49
2022/02/24 12:48:06;;;;;;;;;10.75;10.75;;;;;;;;5039189;28;51567;-50
2022/02/24 12:51:16;;;;;;;;;18.50;16.00;;;;;;;;5039261;28;51201;-49
2022/02/24 12:54:02;;;;;;;;;15.00;11.75;;;;;;;;5050992;28;52114;-46
2022/02/24 12:56:49;;;;;;;;;16.25;13.50;;;;;;;;5055257;28;51215;-52
2022/02/24 12:59:56;;;;;;;;;16.25;14.25;;;;;;;;5046154;28;51524;-48
2022/02/24 13:02:41;;;;;;;;;16.50;13.00;;;;;;;;5060551;28;51047;-48
2022/02/24 13:05:46;;;;;;;;;15.25;14.00;;;;;;;;5041565;28;51702;-48
2022/02/24 13:11:39;;;;;;;;;15.75;13.50;;;;;;;;5040459;28;51140;-50
2022/02/24 13:14:26;;;;;;;;;21.75;14.75;;;;;;;;5045337;28;51120;-53
2022/02/24 13:17:14;;;;;;;;;17.50;16.00;;;;;;;;5042352;28;51181;-51
2022/02/24 13:19:58;;;;;;;;;19.75;15.25;;;;;;;;5044038;28;51151;-50
2022/02/24 13:22:44;;;;;;;;;14.75;13.25;;;;;;;;5045059;28;51281;-50
2022/02/24 13:25:31;;;;;;;;;19.50;13.25;;;;;;;;5042835;28;51406;-48
2022/02/24 13:28:26;;;;;;;;;20.50;15.00;;;;;;;;5051791;28;51174;-44
2022/02/24 13:31:21;;;;;;;;;18.75;15.25;;;;;;;;5049469;28;51560;-49
2022/02/24 13:34:13;;;;;;;;;13.75;12.50;;;;;;;;5050083;28;51112;-50
2022/02/24 13:37:10;;;;;;;;;13.25;10.00;;;;;;;;5059622;28;51081;-47
2022/02/24 13:39:55;;;;;;;;;17.25;13.75;;;;;;;;5047061;28;51080;-53
2022/02/24 13:42:40;;;;;;;;;16.00;12.25;;;;;;;;5050759;28;51132;-49
2022/02/24 13:45:25;;;;;;;;;16.75;16.50;;;;;;;;5050407;28;51489;-48
2022/02/24 13:48:12;;;;;;;;;15.50;14.00;;;;;;;;5050122;28;52182;-48
2022/02/24 13:51:01;;;;;;;;;19.25;17.00;;;;;;;;5052339;28;51382;-47
2022/02/24 13:54:09;;;;;;;;;14.25;14.25;;;;;;;;5049327;28;51296;-49
2022/02/24 13:57:12;;;;;;;;;23.00;15.75;;;;;;;;5037410;28;51475;-49
2022/02/24 14:00:09;;;;;;;;;23.00;15.50;;;;;;;;5054500;28;51445;-52
2022/02/24 14:02:54;;;;;;;;;16.00;13.75;;;;;;;;5044509;28;51135;-46
2022/02/24 14:05:39;;;;;;;;;17.50;12.25;;;;;;;;5039260;28;51411;-49
2022/02/24 14:08:27;;;;;;;;;16.25;12.50;;;;;;;;5056401;28;51040;-49
2022/02/24 14:11:16;;;;;;;;;17.25;14.25;;;;;;;;5056668;28;51447;-45
2022/02/24 14:14:03;;;;;;;;;14.75;13.50;;;;;;;;5040344;28;51157;-47
2022/02/24 14:16:52;;;;;;;;;16.50;14.75;;;;;;;;5039560;28;51579;-49
2022/02/24 14:19:37;;;;;;;;;18.50;16.00;;;;;;;;5054804;28;51177;-51
2022/02/24 14:22:22;;;;;;;;;20.75;13.50;;;;;;;;5036592;28;51472;-48
2022/02/24 14:25:17;;;;;;;;;14.50;14.50;;;;;;;;5046796;28;51142;-46
2022/02/24 14:28:24;;;;;;;;;15.00;12.00;;;;;;;;5047679;28;51625;-48
2022/02/24 14:31:26;;;;;;;;;20.00;16.50;;;;;;;;5043735;28;51271;-51
2022/02/24 14:34:12;;;;;;;;;23.50;14.25;;;;;;;;5042431;28;51116;-51
2022/02/24 14:36:58;;;;;;;;;20.50;14.50;;;;;;;;5039568;28;51127;-50
2022/02/24 14:39:43;;;;;;;;;25.25;16.25;;;;;;;;5040173;28;51049;-52
2022/02/24 14:42:30;;;;;;;;;16.25;12.50;;;;;;;;5059454;28;51066;-50
2022/02/24 14:45:14;;;;;;;;;15.25;13.75;;;;;;;;5059685;28;51573;-48
2022/02/24 14:48:01;;;;;;;;;16.75;12.75;;;;;;;;5040291;28;51532;-49
2022/02/24 14:50:47;;;;;;;;;14.75;13.00;;;;;;;;5054246;28;51134;-48
2022/02/24 14:53:33;;;;;;;;;16.50;15.25;;;;;;;;5050930;28;51138;-50
2022/02/24 14:56:29;;;;;;;;;18.25;14.50;;;;;;;;5049543;28;51436;-47
2022/02/24 14:59:14;;;;;;;;;18.25;14.00;;;;;;;;5048778;28;51076;-51
2022/02/24 15:01:59;;;;;;;;;24.75;17.00;;;;;;;;5050546;28;52203;-51
2022/02/24 15:04:44;;;;;;;;;17.50;13.25;;;;;;;;5053620;28;51259;-50
2022/02/24 15:07:35;;;;;;;;;21.50;17.25;;;;;;;;5053106;28;51412;-51
2022/02/24 15:10:23;;;;;;;;;17.50;16.00;;;;;;;;5044056;28;51252;-45
2022/02/24 15:13:10;;;;;;;;;17.50;17.25;;;;;;;;5048793;28;51386;-52
2022/02/24 15:16:04;;;;;;;;;16.25;14.75;;;;;;;;5046703;28;51105;-46
2022/02/24 15:18:50;;;;;;;;;20.25;15.75;;;;;;;;5044592;28;50973;-48
2022/02/24 15:21:36;;;;;;;;;21.75;15.00;;;;;;;;5042788;28;51123;-46
2022/02/24 15:24:27;;;;;;;;;23.25;15.50;;;;;;;;5050330;28;51145;-48
2022/02/24 15:27:14;;;;;;;;;20.00;16.00;;;;;;;;5043859;28;52515;-50
2022/02/24 15:30:05;;;;;;;;;18.25;13.75;;;;;;;;5050178;28;51144;-52
2022/02/24 15:32:49;;;;;;;;;22.50;17.50;;;;;;;;5048539;28;51099;-46
2022/02/24 15:35:35;;;;;;;;;19.25;16.25;;;;;;;;5049219;28;51139;-51
2022/02/24 15:38:22;;;;;;;;;18.50;16.50;;;;;;;;5045093;28;51560;-48
2022/02/24 15:41:17;;;;;;;;;18.50;15.50;;;;;;;;5050049;28;51265;-47
2022/02/24 15:44:07;;;;;;;;;19.00;15.75;;;;;;;;5049131;28;51190;-46
2022/02/24 15:46:56;;;;;;;;;15.75;13.75;;;;;;;;5048170;28;51513;-47
2022/02/24 15:49:40;;;;;;;;;21.75;15.25;;;;;;;;5041760;28;51102;-50
2022/02/24 15:52:25;;;;;;;;;20.75;14.50;;;;;;;;5038554;28;51109;-49
2022/02/24 15:55:10;;;;;;;;;17.75;16.00;;;;;;;;5040687;28;51182;-49
2022/02/24 15:57:55;;;;;;;;;19.75;16.25;;;;;;;;5041148;28;51928;-47
2022/02/24 16:00:45;;;;;;;;;21.75;15.75;;;;;;;;5035833;28;51223;-49
2022/02/24 16:03:30;;;;;;;;;15.75;14.75;;;;;;;;5046985;28;51330;-51
2022/02/24 16:06:16;;;;;;;;;19.25;14.75;;;;;;;;5038331;28;51214;-47
2022/02/24 16:09:00;;;;;;;;;24.00;17.00;;;;;;;;5038399;28;52097;-52
2022/02/24 16:11:45;;;;;;;;;24.25;16.75;;;;;;;;5040590;28;51420;-48
2022/02/24 16:14:31;;;;;;;;;18.50;14.75;;;;;;;;5038471;28;51314;-49
2022/02/24 16:17:22;;;;;;;;;19.50;16.50;;;;;;;;5036636;28;51600;-51
2022/02/24 16:20:07;;;;;;;;;21.50;16.75;;;;;;;;5039060;28;51128;-48
2022/02/24 16:23:02;;;;;;;;;17.75;15.25;;;;;;;;5045145;28;51431;-49
2022/02/24 16:25:46;;;;;;;;;18.75;15.75;;;;;;;;5038342;28;51202;-46
2022/02/24 16:28:31;;;;;;;;;23.75;14.00;;;;;;;;5042328;28;51453;-48